sensor_id;sensor_type;location;lat;lon;timestamp;P1;durP1;ratioP1;P2;durP2;ratioP2
57317;SDS011;43157;50.982;18.132;2023-07-02T00:01:46;20.80;;;10.40;;
57317;SDS011;43157;50.982;18.132;2023-07-02T00:04:13;24.30;;;10.70;;
57317;SDS011;43157;50.982;18.132;2023-07-02T00:06:42;21.90;;;10.60;;
57317;SDS011;43157;50.982;18.132;2023-07-02T00:09:09;20.00;;;10.10;;
57317;SDS011;43157;50.982;18.132;2023-07-02T00:11:38;24.00;;;10.60;;
57317;SDS011;43157;50.982;18.132;2023-07-02T00:14:05;20.90;;;9.70;;
57317;SDS011;43157;50.982;18.132;2023-07-02T00:16:32;22.30;;;10.10;;
57317;SDS011;43157;50.982;18.132;2023-07-02T00:18:58;23.60;;;10.60;;
57317;SDS011;43157;50.982;18.132;2023-07-02T00:21:26;22.10;;;10.20;;
57317;SDS011;43157;50.982;18.132;2023-07-02T00:23:57;23.10;;;10.60;;
57317;SDS011;43157;50.982;18.132;2023-07-02T00:26:24;20.70;;;9.80;;
57317;SDS011;43157;50.982;18.132;2023-07-02T00:28:50;20.70;;;10.00;;
57317;SDS011;43157;50.982;18.132;2023-07-02T00:31:17;18.30;;;9.10;;
57317;SDS011;43157;50.982;18.132;2023-07-02T00:33:43;20.80;;;10.20;;
57317;SDS011;43157;50.982;18.132;2023-07-02T00:36:09;22.80;;;10.20;;
57317;SDS011;43157;50.982;18.132;2023-07-02T00:38:44;18.20;;;8.50;;
57317;SDS011;43157;50.982;18.132;2023-07-02T00:41:12;19.90;;;9.10;;
57317;SDS011;43157;50.982;18.132;2023-07-02T00:43:38;20.50;;;9.00;;
57317;SDS011;43157;50.982;18.132;2023-07-02T00:46:18;18.50;;;9.40;;
57317;SDS011;43157;50.982;18.132;2023-07-02T00:48:48;19.00;;;8.70;;
57317;SDS011;43157;50.982;18.132;2023-07-02T00:51:25;21.70;;;9.30;;
57317;SDS011;43157;50.982;18.132;2023-07-02T00:53:52;20.80;;;9.30;;
57317;SDS011;43157;50.982;18.132;2023-07-02T00:56:20;20.70;;;8.80;;
57317;SDS011;43157;50.982;18.132;2023-07-02T00:58:47;18.70;;;8.80;;
57317;SDS011;43157;50.982;18.132;2023-07-02T01:01:16;20.00;;;9.30;;
57317;SDS011;43157;50.982;18.132;2023-07-02T01:06:32;20.80;;;9.20;;
57317;SDS011;43157;50.982;18.132;2023-07-02T01:09:01;21.50;;;7.90;;
57317;SDS011;43157;50.982;18.132;2023-07-02T01:11:49;17.90;;;8.10;;
57317;SDS011;43157;50.982;18.132;2023-07-02T01:14:17;19.60;;;8.20;;
57317;SDS011;43157;50.982;18.132;2023-07-02T01:16:55;19.70;;;8.60;;
57317;SDS011;43157;50.982;18.132;2023-07-02T01:22:07;17.70;;;7.50;;
57317;SDS011;43157;50.982;18.132;2023-07-02T01:24:35;17.10;;;8.30;;
57317;SDS011;43157;50.982;18.132;2023-07-02T01:27:01;13.40;;;7.20;;
57317;SDS011;43157;50.982;18.132;2023-07-02T01:29:28;17.00;;;7.30;;
57317;SDS011;43157;50.982;18.132;2023-07-02T01:31:55;16.60;;;7.30;;
57317;SDS011;43157;50.982;18.132;2023-07-02T01:34:21;20.80;;;7.60;;
57317;SDS011;43157;50.982;18.132;2023-07-02T01:36:48;18.60;;;7.50;;
57317;SDS011;43157;50.982;18.132;2023-07-02T01:39:14;22.60;;;7.10;;
57317;SDS011;43157;50.982;18.132;2023-07-02T01:41:45;23.70;;;8.00;;
57317;SDS011;43157;50.982;18.132;2023-07-02T01:44:14;18.60;;;7.30;;
57317;SDS011;43157;50.982;18.132;2023-07-02T01:46:41;15.80;;;6.70;;
57317;SDS011;43157;50.982;18.132;2023-07-02T01:49:07;19.40;;;6.90;;
57317;SDS011;43157;50.982;18.132;2023-07-02T01:51:33;17.60;;;6.70;;
57317;SDS011;43157;50.982;18.132;2023-07-02T01:53:59;17.60;;;7.00;;
57317;SDS011;43157;50.982;18.132;2023-07-02T01:56:26;16.80;;;6.80;;
57317;SDS011;43157;50.982;18.132;2023-07-02T01:58:52;14.10;;;6.80;;
57317;SDS011;43157;50.982;18.132;2023-07-02T02:01:19;17.70;;;6.50;;
57317;SDS011;43157;50.982;18.132;2023-07-02T02:03:45;15.60;;;7.00;;
57317;SDS011;43157;50.982;18.132;2023-07-02T02:06:11;15.40;;;7.00;;
57317;SDS011;43157;50.982;18.132;2023-07-02T02:08:37;14.40;;;7.00;;
57317;SDS011;43157;50.982;18.132;2023-07-02T02:11:04;13.20;;;5.80;;
57317;SDS011;43157;50.982;18.132;2023-07-02T02:13:30;18.20;;;7.10;;
57317;SDS011;43157;50.982;18.132;2023-07-02T02:15:57;15.50;;;6.50;;
57317;SDS011;43157;50.982;18.132;2023-07-02T02:18:23;16.50;;;6.50;;
57317;SDS011;43157;50.982;18.132;2023-07-02T02:20:49;15.50;;;6.40;;
57317;SDS011;43157;50.982;18.132;2023-07-02T02:23:15;15.50;;;6.60;;
57317;SDS011;43157;50.982;18.132;2023-07-02T02:25:42;17.40;;;6.10;;
57317;SDS011;43157;50.982;18.132;2023-07-02T02:28:08;17.80;;;6.90;;
57317;SDS011;43157;50.982;18.132;2023-07-02T02:30:34;15.30;;;6.30;;
57317;SDS011;43157;50.982;18.132;2023-07-02T02:33:01;14.60;;;6.80;;
57317;SDS011;43157;50.982;18.132;2023-07-02T02:35:27;14.40;;;6.10;;
57317;SDS011;43157;50.982;18.132;2023-07-02T02:37:53;14.50;;;6.80;;
57317;SDS011;43157;50.982;18.132;2023-07-02T02:40:20;17.20;;;6.40;;
57317;SDS011;43157;50.982;18.132;2023-07-02T02:42:45;15.80;;;6.20;;
57317;SDS011;43157;50.982;18.132;2023-07-02T02:45:12;16.50;;;6.10;;
57317;SDS011;43157;50.982;18.132;2023-07-02T02:47:38;12.70;;;6.00;;
57317;SDS011;43157;50.982;18.132;2023-07-02T02:50:05;14.40;;;6.10;;
57317;SDS011;43157;50.982;18.132;2023-07-02T02:52:31;13.70;;;5.90;;
57317;SDS011;43157;50.982;18.132;2023-07-02T02:54:59;14.60;;;6.60;;
57317;SDS011;43157;50.982;18.132;2023-07-02T02:57:24;15.00;;;6.40;;
57317;SDS011;43157;50.982;18.132;2023-07-02T02:59:51;13.50;;;6.30;;
57317;SDS011;43157;50.982;18.132;2023-07-02T03:02:17;15.30;;;6.00;;
57317;SDS011;43157;50.982;18.132;2023-07-02T03:04:43;13.80;;;6.10;;
57317;SDS011;43157;50.982;18.132;2023-07-02T03:07:10;12.70;;;5.70;;
57317;SDS011;43157;50.982;18.132;2023-07-02T03:09:37;12.50;;;5.90;;
57317;SDS011;43157;50.982;18.132;2023-07-02T03:12:03;14.40;;;5.70;;
57317;SDS011;43157;50.982;18.132;2023-07-02T03:14:29;13.60;;;5.90;;
57317;SDS011;43157;50.982;18.132;2023-07-02T03:16:56;14.50;;;6.10;;
57317;SDS011;43157;50.982;18.132;2023-07-02T03:19:22;11.90;;;5.20;;
57317;SDS011;43157;50.982;18.132;2023-07-02T03:21:48;12.60;;;5.60;;
57317;SDS011;43157;50.982;18.132;2023-07-02T03:24:14;14.20;;;5.60;;
57317;SDS011;43157;50.982;18.132;2023-07-02T03:26:42;15.50;;;5.30;;
57317;SDS011;43157;50.982;18.132;2023-07-02T03:29:08;13.30;;;5.80;;
57317;SDS011;43157;50.982;18.132;2023-07-02T03:31:35;11.60;;;5.30;;
57317;SDS011;43157;50.982;18.132;2023-07-02T03:34:06;12.70;;;5.00;;
57317;SDS011;43157;50.982;18.132;2023-07-02T03:36:33;14.50;;;5.60;;
57317;SDS011;43157;50.982;18.132;2023-07-02T03:38:59;14.00;;;5.80;;
57317;SDS011;43157;50.982;18.132;2023-07-02T03:41:26;14.30;;;5.20;;
57317;SDS011;43157;50.982;18.132;2023-07-02T03:43:52;13.60;;;5.00;;
57317;SDS011;43157;50.982;18.132;2023-07-02T03:46:18;14.20;;;4.90;;
57317;SDS011;43157;50.982;18.132;2023-07-02T03:48:45;12.20;;;4.50;;
57317;SDS011;43157;50.982;18.132;2023-07-02T03:51:11;12.00;;;4.40;;
57317;SDS011;43157;50.982;18.132;2023-07-02T03:53:40;11.90;;;4.40;;
57317;SDS011;43157;50.982;18.132;2023-07-02T03:56:07;10.70;;;4.40;;
57317;SDS011;43157;50.982;18.132;2023-07-02T03:58:33;11.80;;;4.50;;
57317;SDS011;43157;50.982;18.132;2023-07-02T04:14:14;9.80;;;3.50;;
57317;SDS011;43157;50.982;18.132;2023-07-02T04:16:42;9.90;;;3.30;;
57317;SDS011;43157;50.982;18.132;2023-07-02T04:19:10;9.00;;;3.40;;
57317;SDS011;43157;50.982;18.132;2023-07-02T04:21:36;10.30;;;3.20;;
57317;SDS011;43157;50.982;18.132;2023-07-02T04:24:01;9.30;;;2.90;;
57317;SDS011;43157;50.982;18.132;2023-07-02T04:26:28;8.20;;;2.20;;
57317;SDS011;43157;50.982;18.132;2023-07-02T04:28:55;7.80;;;2.60;;
57317;SDS011;43157;50.982;18.132;2023-07-02T04:31:21;6.10;;;1.90;;
57317;SDS011;43157;50.982;18.132;2023-07-02T04:33:47;7.00;;;1.80;;
57317;SDS011;43157;50.982;18.132;2023-07-02T04:36:13;6.90;;;1.90;;
57317;SDS011;43157;50.982;18.132;2023-07-02T04:38:39;5.90;;;2.10;;
57317;SDS011;43157;50.982;18.132;2023-07-02T04:41:06;7.60;;;2.20;;
57317;SDS011;43157;50.982;18.132;2023-07-02T04:43:32;7.80;;;1.90;;
57317;SDS011;43157;50.982;18.132;2023-07-02T04:45:58;8.10;;;2.10;;
57317;SDS011;43157;50.982;18.132;2023-07-02T04:48:25;9.30;;;1.90;;
57317;SDS011;43157;50.982;18.132;2023-07-02T04:50:51;7.80;;;1.80;;
57317;SDS011;43157;50.982;18.132;2023-07-02T04:53:17;8.20;;;1.70;;
57317;SDS011;43157;50.982;18.132;2023-07-02T04:55:43;8.70;;;1.90;;
57317;SDS011;43157;50.982;18.132;2023-07-02T04:58:10;8.80;;;1.90;;
57317;SDS011;43157;50.982;18.132;2023-07-02T05:00:36;9.50;;;1.70;;
57317;SDS011;43157;50.982;18.132;2023-07-02T05:03:02;7.20;;;2.00;;
57317;SDS011;43157;50.982;18.132;2023-07-02T05:05:28;6.20;;;1.30;;
57317;SDS011;43157;50.982;18.132;2023-07-02T05:07:55;6.40;;;1.40;;
57317;SDS011;43157;50.982;18.132;2023-07-02T05:10:21;7.60;;;1.30;;
57317;SDS011;43157;50.982;18.132;2023-07-02T05:12:47;8.40;;;1.40;;
57317;SDS011;43157;50.982;18.132;2023-07-02T05:15:13;4.20;;;1.10;;
57317;SDS011;43157;50.982;18.132;2023-07-02T05:17:39;6.30;;;1.50;;
57317;SDS011;43157;50.982;18.132;2023-07-02T05:20:06;6.00;;;1.30;;
57317;SDS011;43157;50.982;18.132;2023-07-02T05:22:32;4.40;;;1.10;;
57317;SDS011;43157;50.982;18.132;2023-07-02T05:24:58;5.20;;;1.10;;
57317;SDS011;43157;50.982;18.132;2023-07-02T05:27:25;5.70;;;1.10;;
57317;SDS011;43157;50.982;18.132;2023-07-02T05:29:51;3.60;;;1.10;;
57317;SDS011;43157;50.982;18.132;2023-07-02T05:32:17;5.20;;;0.90;;
57317;SDS011;43157;50.982;18.132;2023-07-02T05:34:43;3.30;;;0.80;;
57317;SDS011;43157;50.982;18.132;2023-07-02T05:37:10;3.00;;;0.90;;
57317;SDS011;43157;50.982;18.132;2023-07-02T05:39:36;1.70;;;0.60;;
57317;SDS011;43157;50.982;18.132;2023-07-02T05:42:02;3.10;;;0.80;;
57317;SDS011;43157;50.982;18.132;2023-07-02T05:44:29;2.40;;;0.60;;
57317;SDS011;43157;50.982;18.132;2023-07-02T05:46:55;4.20;;;0.80;;
57317;SDS011;43157;50.982;18.132;2023-07-02T05:49:21;2.40;;;0.80;;
57317;SDS011;43157;50.982;18.132;2023-07-02T05:51:48;3.10;;;0.80;;
57317;SDS011;43157;50.982;18.132;2023-07-02T05:54:14;3.60;;;0.80;;
57317;SDS011;43157;50.982;18.132;2023-07-02T05:56:40;3.90;;;0.70;;
57317;SDS011;43157;50.982;18.132;2023-07-02T05:59:06;2.90;;;0.70;;
57317;SDS011;43157;50.982;18.132;2023-07-02T06:01:32;4.50;;;0.90;;
57317;SDS011;43157;50.982;18.132;2023-07-02T06:03:59;3.60;;;0.70;;
57317;SDS011;43157;50.982;18.132;2023-07-02T06:06:25;5.40;;;1.00;;
57317;SDS011;43157;50.982;18.132;2023-07-02T06:08:51;2.70;;;0.80;;
57317;SDS011;43157;50.982;18.132;2023-07-02T06:11:17;3.30;;;0.70;;
57317;SDS011;43157;50.982;18.132;2023-07-02T06:13:44;4.80;;;0.70;;
57317;SDS011;43157;50.982;18.132;2023-07-02T06:16:10;3.90;;;0.80;;
57317;SDS011;43157;50.982;18.132;2023-07-02T06:18:36;2.60;;;0.70;;
57317;SDS011;43157;50.982;18.132;2023-07-02T06:21:03;4.00;;;0.80;;
57317;SDS011;43157;50.982;18.132;2023-07-02T06:23:29;4.50;;;0.90;;
57317;SDS011;43157;50.982;18.132;2023-07-02T06:25:55;3.00;;;0.80;;
57317;SDS011;43157;50.982;18.132;2023-07-02T06:28:25;3.90;;;0.80;;
57317;SDS011;43157;50.982;18.132;2023-07-02T06:30:52;2.90;;;0.70;;
57317;SDS011;43157;50.982;18.132;2023-07-02T06:33:18;2.60;;;0.80;;
57317;SDS011;43157;50.982;18.132;2023-07-02T06:35:44;5.30;;;1.10;;
57317;SDS011;43157;50.982;18.132;2023-07-02T06:38:10;6.20;;;0.90;;
57317;SDS011;43157;50.982;18.132;2023-07-02T06:40:36;4.00;;;1.00;;
57317;SDS011;43157;50.982;18.132;2023-07-02T06:43:03;4.40;;;1.00;;
57317;SDS011;43157;50.982;18.132;2023-07-02T06:45:29;3.10;;;0.90;;
57317;SDS011;43157;50.982;18.132;2023-07-02T06:47:55;4.10;;;1.00;;
57317;SDS011;43157;50.982;18.132;2023-07-02T06:50:21;6.30;;;0.90;;
57317;SDS011;43157;50.982;18.132;2023-07-02T06:52:48;5.20;;;1.00;;
57317;SDS011;43157;50.982;18.132;2023-07-02T06:55:14;5.50;;;1.00;;
57317;SDS011;43157;50.982;18.132;2023-07-02T06:57:44;6.10;;;1.00;;
57317;SDS011;43157;50.982;18.132;2023-07-02T07:00:13;4.30;;;1.00;;
57317;SDS011;43157;50.982;18.132;2023-07-02T07:02:40;4.00;;;1.10;;
57317;SDS011;43157;50.982;18.132;2023-07-02T07:05:06;3.70;;;0.80;;
57317;SDS011;43157;50.982;18.132;2023-07-02T07:07:33;4.50;;;0.90;;
57317;SDS011;43157;50.982;18.132;2023-07-02T07:09:59;4.00;;;0.90;;
57317;SDS011;43157;50.982;18.132;2023-07-02T07:12:25;4.20;;;1.40;;
57317;SDS011;43157;50.982;18.132;2023-07-02T07:14:51;3.30;;;0.90;;
57317;SDS011;43157;50.982;18.132;2023-07-02T07:17:17;4.30;;;1.10;;
57317;SDS011;43157;50.982;18.132;2023-07-02T07:19:44;3.30;;;0.90;;
57317;SDS011;43157;50.982;18.132;2023-07-02T07:22:10;6.10;;;1.00;;
57317;SDS011;43157;50.982;18.132;2023-07-02T07:24:36;4.10;;;1.10;;
57317;SDS011;43157;50.982;18.132;2023-07-02T07:27:02;2.50;;;0.90;;
57317;SDS011;43157;50.982;18.132;2023-07-02T07:29:29;3.40;;;1.00;;
57317;SDS011;43157;50.982;18.132;2023-07-02T07:31:55;3.80;;;1.10;;
57317;SDS011;43157;50.982;18.132;2023-07-02T07:34:21;3.60;;;1.00;;
57317;SDS011;43157;50.982;18.132;2023-07-02T07:36:48;3.80;;;1.10;;
57317;SDS011;43157;50.982;18.132;2023-07-02T07:39:14;2.90;;;0.80;;
57317;SDS011;43157;50.982;18.132;2023-07-02T07:41:40;3.30;;;0.80;;
57317;SDS011;43157;50.982;18.132;2023-07-02T07:44:06;3.00;;;0.90;;
57317;SDS011;43157;50.982;18.132;2023-07-02T07:46:32;5.30;;;0.90;;
57317;SDS011;43157;50.982;18.132;2023-07-02T07:48:59;4.10;;;1.10;;
57317;SDS011;43157;50.982;18.132;2023-07-02T07:51:25;3.10;;;0.90;;
57317;SDS011;43157;50.982;18.132;2023-07-02T07:53:51;5.00;;;1.10;;
57317;SDS011;43157;50.982;18.132;2023-07-02T07:56:17;6.00;;;1.10;;
57317;SDS011;43157;50.982;18.132;2023-07-02T07:58:43;3.60;;;1.10;;
57317;SDS011;43157;50.982;18.132;2023-07-02T08:01:09;3.00;;;0.90;;
57317;SDS011;43157;50.982;18.132;2023-07-02T08:03:37;4.00;;;0.90;;
57317;SDS011;43157;50.982;18.132;2023-07-02T08:06:03;3.00;;;0.90;;
57317;SDS011;43157;50.982;18.132;2023-07-02T08:08:29;5.80;;;1.20;;
57317;SDS011;43157;50.982;18.132;2023-07-02T08:10:56;5.10;;;1.10;;
57317;SDS011;43157;50.982;18.132;2023-07-02T08:13:22;3.10;;;1.00;;
57317;SDS011;43157;50.982;18.132;2023-07-02T08:15:49;3.60;;;1.20;;
57317;SDS011;43157;50.982;18.132;2023-07-02T08:18:15;3.80;;;1.10;;
57317;SDS011;43157;50.982;18.132;2023-07-02T08:20:41;4.00;;;1.00;;
57317;SDS011;43157;50.982;18.132;2023-07-02T08:23:07;3.60;;;1.10;;
57317;SDS011;43157;50.982;18.132;2023-07-02T08:25:33;4.40;;;1.10;;
57317;SDS011;43157;50.982;18.132;2023-07-02T08:28:00;4.20;;;1.20;;
57317;SDS011;43157;50.982;18.132;2023-07-02T08:30:26;3.70;;;1.10;;
57317;SDS011;43157;50.982;18.132;2023-07-02T08:32:52;4.30;;;1.10;;
57317;SDS011;43157;50.982;18.132;2023-07-02T08:35:19;3.20;;;0.90;;
57317;SDS011;43157;50.982;18.132;2023-07-02T08:37:45;4.80;;;1.30;;
57317;SDS011;43157;50.982;18.132;2023-07-02T08:40:18;3.70;;;1.50;;
57317;SDS011;43157;50.982;18.132;2023-07-02T08:42:45;4.50;;;1.50;;
57317;SDS011;43157;50.982;18.132;2023-07-02T08:45:13;6.30;;;1.30;;
57317;SDS011;43157;50.982;18.132;2023-07-02T08:47:43;4.90;;;1.40;;
57317;SDS011;43157;50.982;18.132;2023-07-02T08:50:11;4.40;;;1.60;;
57317;SDS011;43157;50.982;18.132;2023-07-02T08:52:38;6.30;;;1.70;;
57317;SDS011;43157;50.982;18.132;2023-07-02T08:55:05;6.20;;;1.80;;
57317;SDS011;43157;50.982;18.132;2023-07-02T08:57:31;4.90;;;1.70;;
57317;SDS011;43157;50.982;18.132;2023-07-02T08:59:57;6.50;;;1.90;;
57317;SDS011;43157;50.982;18.132;2023-07-02T09:02:31;5.60;;;2.00;;
57317;SDS011;43157;50.982;18.132;2023-07-02T09:05:01;6.40;;;1.70;;
57317;SDS011;43157;50.982;18.132;2023-07-02T09:07:28;4.70;;;1.60;;
57317;SDS011;43157;50.982;18.132;2023-07-02T09:09:54;4.90;;;1.70;;
57317;SDS011;43157;50.982;18.132;2023-07-02T09:12:27;4.80;;;1.80;;
57317;SDS011;43157;50.982;18.132;2023-07-02T09:17:32;3.90;;;1.30;;
57317;SDS011;43157;50.982;18.132;2023-07-02T09:20:00;4.40;;;1.40;;
57317;SDS011;43157;50.982;18.132;2023-07-02T09:22:28;5.00;;;1.50;;
57317;SDS011;43157;50.982;18.132;2023-07-02T09:24:55;6.10;;;1.60;;
57317;SDS011;43157;50.982;18.132;2023-07-02T09:27:34;3.70;;;1.10;;
57317;SDS011;43157;50.982;18.132;2023-07-02T09:30:10;3.60;;;1.20;;
57317;SDS011;43157;50.982;18.132;2023-07-02T09:32:44;4.00;;;1.40;;
57317;SDS011;43157;50.982;18.132;2023-07-02T09:35:11;3.60;;;1.20;;
57317;SDS011;43157;50.982;18.132;2023-07-02T09:37:37;5.20;;;1.20;;
57317;SDS011;43157;50.982;18.132;2023-07-02T09:40:04;3.40;;;1.20;;
57317;SDS011;43157;50.982;18.132;2023-07-02T09:42:34;4.20;;;1.20;;
57317;SDS011;43157;50.982;18.132;2023-07-02T09:45:01;3.60;;;1.00;;
57317;SDS011;43157;50.982;18.132;2023-07-02T09:47:28;2.70;;;0.80;;
57317;SDS011;43157;50.982;18.132;2023-07-02T09:49:56;2.70;;;1.00;;
57317;SDS011;43157;50.982;18.132;2023-07-02T09:52:25;3.80;;;1.10;;
57317;SDS011;43157;50.982;18.132;2023-07-02T09:54:52;4.50;;;1.20;;
57317;SDS011;43157;50.982;18.132;2023-07-02T09:57:18;2.80;;;1.00;;
57317;SDS011;43157;50.982;18.132;2023-07-02T09:59:44;4.00;;;1.20;;
57317;SDS011;43157;50.982;18.132;2023-07-02T10:02:11;6.20;;;1.90;;
57317;SDS011;43157;50.982;18.132;2023-07-02T10:04:47;7.50;;;2.30;;
57317;SDS011;43157;50.982;18.132;2023-07-02T10:07:25;4.80;;;1.30;;
57317;SDS011;43157;50.982;18.132;2023-07-02T10:09:52;3.80;;;1.50;;
57317;SDS011;43157;50.982;18.132;2023-07-02T10:12:22;4.80;;;1.70;;
57317;SDS011;43157;50.982;18.132;2023-07-02T10:14:49;4.60;;;1.60;;
57317;SDS011;43157;50.982;18.132;2023-07-02T10:17:23;3.30;;;1.00;;
57317;SDS011;43157;50.982;18.132;2023-07-02T10:20:03;2.50;;;1.00;;
57317;SDS011;43157;50.982;18.132;2023-07-02T10:22:42;3.10;;;1.10;;
57317;SDS011;43157;50.982;18.132;2023-07-02T10:25:09;4.20;;;1.30;;
57317;SDS011;43157;50.982;18.132;2023-07-02T10:27:38;3.20;;;1.00;;
57317;SDS011;43157;50.982;18.132;2023-07-02T10:30:06;3.20;;;1.00;;
57317;SDS011;43157;50.982;18.132;2023-07-02T10:32:33;4.00;;;1.20;;
57317;SDS011;43157;50.982;18.132;2023-07-02T10:35:01;3.10;;;1.00;;
57317;SDS011;43157;50.982;18.132;2023-07-02T10:37:36;2.50;;;0.90;;
57317;SDS011;43157;50.982;18.132;2023-07-02T10:40:04;4.10;;;1.20;;
57317;SDS011;43157;50.982;18.132;2023-07-02T10:42:47;3.80;;;1.30;;
57317;SDS011;43157;50.982;18.132;2023-07-02T10:45:14;3.80;;;1.50;;
57317;SDS011;43157;50.982;18.132;2023-07-02T10:47:40;3.80;;;1.10;;
57317;SDS011;43157;50.982;18.132;2023-07-02T10:50:16;4.50;;;1.40;;
57317;SDS011;43157;50.982;18.132;2023-07-02T10:52:46;4.90;;;1.40;;
57317;SDS011;43157;50.982;18.132;2023-07-02T10:55:16;3.40;;;1.10;;
57317;SDS011;43157;50.982;18.132;2023-07-02T10:57:43;4.30;;;1.60;;
57317;SDS011;43157;50.982;18.132;2023-07-02T11:00:10;4.40;;;1.10;;
57317;SDS011;43157;50.982;18.132;2023-07-02T11:02:37;3.60;;;1.10;;
57317;SDS011;43157;50.982;18.132;2023-07-02T11:05:05;2.70;;;1.10;;
57317;SDS011;43157;50.982;18.132;2023-07-02T11:07:40;3.40;;;1.40;;
57317;SDS011;43157;50.982;18.132;2023-07-02T11:10:07;3.20;;;1.20;;
57317;SDS011;43157;50.982;18.132;2023-07-02T11:12:34;3.90;;;1.20;;
57317;SDS011;43157;50.982;18.132;2023-07-02T11:15:12;5.30;;;2.10;;
57317;SDS011;43157;50.982;18.132;2023-07-02T11:17:41;4.30;;;1.50;;
57317;SDS011;43157;50.982;18.132;2023-07-02T11:20:08;5.20;;;1.70;;
57317;SDS011;43157;50.982;18.132;2023-07-02T11:22:35;4.80;;;1.30;;
57317;SDS011;43157;50.982;18.132;2023-07-02T11:28:03;6.30;;;1.90;;
57317;SDS011;43157;50.982;18.132;2023-07-02T11:30:29;4.50;;;1.70;;
57317;SDS011;43157;50.982;18.132;2023-07-02T11:32:56;5.50;;;1.90;;
57317;SDS011;43157;50.982;18.132;2023-07-02T11:35:22;4.80;;;1.60;;
57317;SDS011;43157;50.982;18.132;2023-07-02T11:37:59;5.00;;;1.80;;
57317;SDS011;43157;50.982;18.132;2023-07-02T11:40:25;5.20;;;1.70;;
57317;SDS011;43157;50.982;18.132;2023-07-02T11:42:52;6.30;;;1.70;;
57317;SDS011;43157;50.982;18.132;2023-07-02T11:45:18;6.70;;;1.80;;
57317;SDS011;43157;50.982;18.132;2023-07-02T11:47:44;5.60;;;1.70;;
57317;SDS011;43157;50.982;18.132;2023-07-02T11:50:10;6.30;;;1.80;;
57317;SDS011;43157;50.982;18.132;2023-07-02T11:52:36;6.50;;;1.90;;
57317;SDS011;43157;50.982;18.132;2023-07-02T11:55:03;4.00;;;1.50;;
57317;SDS011;43157;50.982;18.132;2023-07-02T11:57:29;4.70;;;1.70;;
57317;SDS011;43157;50.982;18.132;2023-07-02T11:59:56;4.90;;;1.60;;
57317;SDS011;43157;50.982;18.132;2023-07-02T12:02:22;4.30;;;1.50;;
57317;SDS011;43157;50.982;18.132;2023-07-02T12:04:48;4.60;;;1.60;;
57317;SDS011;43157;50.982;18.132;2023-07-02T12:07:14;4.70;;;1.60;;
57317;SDS011;43157;50.982;18.132;2023-07-02T12:09:40;5.50;;;2.00;;
57317;SDS011;43157;50.982;18.132;2023-07-02T12:12:07;5.70;;;1.60;;
57317;SDS011;43157;50.982;18.132;2023-07-02T12:14:33;4.60;;;1.60;;
57317;SDS011;43157;50.982;18.132;2023-07-02T12:16:59;5.20;;;1.50;;
57317;SDS011;43157;50.982;18.132;2023-07-02T12:19:25;6.80;;;2.00;;
57317;SDS011;43157;50.982;18.132;2023-07-02T12:21:52;3.30;;;1.30;;
57317;SDS011;43157;50.982;18.132;2023-07-02T12:24:18;4.30;;;1.40;;
57317;SDS011;43157;50.982;18.132;2023-07-02T12:26:44;5.00;;;1.70;;
57317;SDS011;43157;50.982;18.132;2023-07-02T12:29:10;4.50;;;1.40;;
57317;SDS011;43157;50.982;18.132;2023-07-02T12:31:37;5.20;;;1.60;;
57317;SDS011;43157;50.982;18.132;2023-07-02T12:34:03;2.40;;;1.10;;
57317;SDS011;43157;50.982;18.132;2023-07-02T12:36:29;3.60;;;1.50;;
57317;SDS011;43157;50.982;18.132;2023-07-02T12:38:55;4.10;;;1.30;;
57317;SDS011;43157;50.982;18.132;2023-07-02T12:41:21;7.40;;;1.50;;
57317;SDS011;43157;50.982;18.132;2023-07-02T12:43:47;3.80;;;1.30;;
57317;SDS011;43157;50.982;18.132;2023-07-02T12:46:14;6.40;;;1.60;;
57317;SDS011;43157;50.982;18.132;2023-07-02T12:48:40;3.80;;;1.30;;
57317;SDS011;43157;50.982;18.132;2023-07-02T12:51:06;2.90;;;1.00;;
57317;SDS011;43157;50.982;18.132;2023-07-02T12:53:32;4.00;;;1.10;;
57317;SDS011;43157;50.982;18.132;2023-07-02T12:55:58;4.60;;;1.00;;
57317;SDS011;43157;50.982;18.132;2023-07-02T12:58:24;5.80;;;1.10;;
57317;SDS011;43157;50.982;18.132;2023-07-02T13:00:50;6.00;;;1.00;;
57317;SDS011;43157;50.982;18.132;2023-07-02T13:03:17;3.70;;;1.20;;
57317;SDS011;43157;50.982;18.132;2023-07-02T13:05:43;3.20;;;0.90;;
57317;SDS011;43157;50.982;18.132;2023-07-02T13:08:09;4.20;;;1.10;;
57317;SDS011;43157;50.982;18.132;2023-07-02T13:10:35;5.10;;;0.90;;
57317;SDS011;43157;50.982;18.132;2023-07-02T13:13:01;4.80;;;1.10;;
57317;SDS011;43157;50.982;18.132;2023-07-02T13:15:27;2.50;;;0.90;;
57317;SDS011;43157;50.982;18.132;2023-07-02T13:17:54;3.30;;;1.00;;
57317;SDS011;43157;50.982;18.132;2023-07-02T13:20:20;3.30;;;1.00;;
57317;SDS011;43157;50.982;18.132;2023-07-02T13:22:46;2.40;;;0.80;;
57317;SDS011;43157;50.982;18.132;2023-07-02T13:25:12;4.80;;;0.90;;
57317;SDS011;43157;50.982;18.132;2023-07-02T13:27:38;3.70;;;0.90;;
57317;SDS011;43157;50.982;18.132;2023-07-02T13:30:05;3.90;;;1.00;;
57317;SDS011;43157;50.982;18.132;2023-07-02T13:32:31;3.30;;;0.90;;
57317;SDS011;43157;50.982;18.132;2023-07-02T13:34:57;2.30;;;0.70;;
57317;SDS011;43157;50.982;18.132;2023-07-02T13:37:23;4.00;;;1.00;;
57317;SDS011;43157;50.982;18.132;2023-07-02T13:39:50;3.40;;;0.80;;
57317;SDS011;43157;50.982;18.132;2023-07-02T13:42:16;3.60;;;1.00;;
57317;SDS011;43157;50.982;18.132;2023-07-02T13:44:42;3.00;;;1.00;;
57317;SDS011;43157;50.982;18.132;2023-07-02T13:47:09;4.90;;;1.10;;
57317;SDS011;43157;50.982;18.132;2023-07-02T13:49:35;3.40;;;0.90;;
57317;SDS011;43157;50.982;18.132;2023-07-02T13:52:01;3.60;;;0.90;;
57317;SDS011;43157;50.982;18.132;2023-07-02T13:54:27;3.40;;;1.00;;
57317;SDS011;43157;50.982;18.132;2023-07-02T13:56:55;5.20;;;1.10;;
57317;SDS011;43157;50.982;18.132;2023-07-02T13:59:21;6.40;;;1.30;;
57317;SDS011;43157;50.982;18.132;2023-07-02T14:01:47;6.70;;;1.40;;
57317;SDS011;43157;50.982;18.132;2023-07-02T14:04:14;3.60;;;1.00;;
57317;SDS011;43157;50.982;18.132;2023-07-02T14:06:40;3.40;;;1.10;;
57317;SDS011;43157;50.982;18.132;2023-07-02T14:09:06;3.30;;;0.90;;
57317;SDS011;43157;50.982;18.132;2023-07-02T14:11:34;4.60;;;1.20;;
57317;SDS011;43157;50.982;18.132;2023-07-02T14:14:01;2.50;;;0.80;;
57317;SDS011;43157;50.982;18.132;2023-07-02T14:16:27;5.20;;;1.10;;
57317;SDS011;43157;50.982;18.132;2023-07-02T14:18:53;3.00;;;0.90;;
57317;SDS011;43157;50.982;18.132;2023-07-02T14:21:20;5.20;;;1.10;;
57317;SDS011;43157;50.982;18.132;2023-07-02T14:23:46;2.70;;;0.90;;
57317;SDS011;43157;50.982;18.132;2023-07-02T14:26:12;3.60;;;1.20;;
57317;SDS011;43157;50.982;18.132;2023-07-02T14:28:38;6.70;;;1.40;;
57317;SDS011;43157;50.982;18.132;2023-07-02T14:31:05;2.50;;;0.90;;
57317;SDS011;43157;50.982;18.132;2023-07-02T14:33:32;7.50;;;1.10;;
57317;SDS011;43157;50.982;18.132;2023-07-02T14:36:00;4.00;;;1.00;;
57317;SDS011;43157;50.982;18.132;2023-07-02T14:38:26;3.20;;;0.90;;
57317;SDS011;43157;50.982;18.132;2023-07-02T14:40:53;2.60;;;0.80;;
57317;SDS011;43157;50.982;18.132;2023-07-02T14:43:19;3.50;;;1.00;;
57317;SDS011;43157;50.982;18.132;2023-07-02T14:45:47;5.00;;;1.20;;
57317;SDS011;43157;50.982;18.132;2023-07-02T14:48:17;4.70;;;1.10;;
57317;SDS011;43157;50.982;18.132;2023-07-02T14:50:44;3.90;;;1.00;;
57317;SDS011;43157;50.982;18.132;2023-07-02T14:53:11;5.50;;;1.60;;
57317;SDS011;43157;50.982;18.132;2023-07-02T14:55:37;3.30;;;1.00;;